19:11
Airports
History
Links
Donate
Help keep this website running!
PayPal
Bitcoin
This page is community maintained. The information is intended for PC simulator navigation or reference.
Always use approved charts for navigation.
EDXC
Schleswig Kropp
Schleswig Kropp (EDXC)
Kropp, Schleswig-Holstein, Germany (24848)
(C)
Lat/Lng:54° 25' 31.79" N / 9° 32' 32.25" E
54.425497 / 9.542291
Elevation:54'ft / 16mMSL
ID / ICAO:EDXC
Runways:1
Longest:9-27
Grass 821m / 2,693ft
Controlled:Yes
Nearby Weather18:20 GMT 2017-12-11
Nearby weather at ETNS, SCHLESWIG located 2.5 nautical miles from EDXC
Altimeter: 29.09
Visibility: 0.5 statute miles
Wind: 12 knots (from 030°)
Temp: 0°c / 32°f
Humidity: %

METAR: ETNS 111820Z AUTO 03012KT 0800 // ////// 00/M00 Q0985 ///

(Powered by phpweather)
Airport Radio Frequencies
Tower: 118.67
Nearby VORs <50NM
Nearby NDBs
Runway 9 / 27
Dimensions:820.8 x 32m 2693' x 105'ft
Surface:Grass
Runway 9 [A]Runway 27 [B]
Heading:086°TH 266°TH
Lat:
Lng:
54° 25' 30.97"N
9° 32' 9.32"E
54° 25' 32.61"N
9° 32' 55.18"E
User Notes and Comments
54° 25' 31.79" N / 9° 32' 32.25" E
Distance To
Airport ID:
Nearby Airports
(U) SCHLESWIG 2.5 NM
ETNS ( WX ) NNW 336°
(C) HOHN 7.8 NM
ETNH ( WX ) S 181°
(U) RENDSBURG SCHACHTHOLM 14.3 NM
EDXR S 170°
(C) HUSUM SCHWESING 17.2 NM
EDXJ WNW 289°
(C) Kiel Holtenau 24.4 NM
EDHK E 97°
(C) FLENSBURG SCHAFERHAUS 24.9 NM
EDXF NNW 344°
4 Bordelum 28.2 NM
EDWA WNW 299°
VFR Chart
Flight Planning at SkyVector.com